Time;durP1;ratioP1;P1;durP2;ratioP2;P2;SDS_P1;SDS_P2;PMS_P1;PMS_P2;Temp;Humidity;BMP_temperature;BMP_pressure;BME280_temperature;BME280_humidity;BME280_pressure;Samples;Min_cycle;Max_cycle;Signal;HPM_P1;HPM_P2
2023/04/03 00:01:19;;;;;;;5.90;2.00;;;;;;;1.65;65.49;100619.34;103429;1260;138026;-76
2023/04/03 00:03:43;;;;;;;5.80;2.30;;;;;;;1.60;65.17;100618.59;103834;1252;95086;-77
2023/04/03 00:06:11;;;;;;;5.60;2.30;;;;;;;1.56;65.27;100622.66;103325;1256;137212;-76
2023/04/03 00:08:39;;;;;;;8.50;2.00;;;;;;;1.52;65.12;100624.52;103487;1252;95081;-77
2023/04/03 00:11:06;;;;;;;3.60;1.80;;;;;;;1.48;64.96;100628.25;103425;1256;109461;-77
2023/04/03 00:13:34;;;;;;;4.10;1.80;;;;;;;1.43;64.74;100627.49;103287;1256;137689;-77
2023/04/03 00:16:01;;;;;;;6.40;1.90;;;;;;;1.37;64.52;100628.63;103424;1257;95168;-76
2023/04/03 00:18:25;;;;;;;4.30;1.90;;;;;;;1.32;64.58;100628.58;103667;1257;137244;-77
2023/04/03 00:20:49;;;;;;;5.40;2.30;;;;;;;1.26;64.71;100631.25;103711;1252;94933;-77
2023/04/03 00:23:16;;;;;;;4.70;1.80;;;;;;;1.22;64.91;100632.73;104250;1255;108772;-76
2023/04/03 00:25:39;;;;;;;5.20;2.00;;;;;;;1.18;64.96;100636.64;103736;1252;137425;-75
2023/04/03 00:28:04;;;;;;;5.40;2.10;;;;;;;1.14;64.90;100636.59;103433;1252;95607;-75
2023/04/03 00:30:50;;;;;;;5.10;2.00;;;;;;;1.09;64.95;100640.14;103264;1252;137297;-75
2023/04/03 00:33:34;;;;;;;6.70;2.30;;;;;;;1.06;65.00;100644.02;104338;1252;95214;-75
2023/04/03 00:35:58;;;;;;;4.70;2.10;;;;;;;1.03;64.91;100640.89;103302;1252;137441;-75
2023/04/03 00:38:22;;;;;;;4.80;2.00;;;;;;;0.98;64.93;100640.84;103467;1252;107958;-74
2023/04/03 00:40:58;;;;;;;;;;;;;;;0.93;65.01;100644.05;104033;1252;94141;-75
2023/04/03 00:43:42;;;;;;;5.70;2.00;;;;;;;0.87;65.09;100642.22;103375;1253;123530;-75
2023/04/03 00:46:09;;;;;;;5.00;1.90;;;;;;;0.82;64.78;100639.59;103929;1252;95100;-74
2023/04/03 00:48:53;;;;;;;4.90;1.90;;;;;;;0.76;64.52;100642.95;103627;1252;137725;-75
2023/04/03 00:51:37;;;;;;;2.90;1.60;;;;;;;0.72;64.53;100642.89;103558;1252;109383;-75
2023/04/03 00:54:05;;;;;;;4.90;1.90;;;;;;;0.68;64.88;100643.84;103772;1255;138002;-75
2023/04/03 00:56:31;;;;;;;3.40;1.50;;;;;;;0.67;64.99;100646.05;103444;1256;108496;-75
2023/04/03 00:59:01;;;;;;;4.50;1.80;;;;;;;0.64;64.87;100648.23;103472;1257;95094;-75
2023/04/03 01:01:28;;;;;;;3.00;1.80;;;;;;;0.60;64.71;100652.98;103416;1253;137383;-75
2023/04/03 01:03:52;;;;;;;3.80;1.80;;;;;;;0.57;64.68;100657.41;104129;1256;106716;-75
2023/04/03 01:06:20;;;;;;;8.10;1.70;;;;;;;0.55;64.65;100655.66;103597;1252;137588;-75
2023/04/03 01:08:48;;;;;;;6.40;1.80;;;;;;;0.52;64.61;100662.43;103596;1252;108668;-75
2023/04/03 01:11:15;;;;;;;4.00;1.70;;;;;;;0.49;64.62;100666.33;103726;1252;95101;-76
2023/04/03 01:14:01;;;;;;;5.50;2.00;;;;;;;0.46;64.57;100670.04;103668;1254;109135;-76
2023/04/03 01:16:30;;;;;;;4.10;1.70;;;;;;;0.41;64.66;100671.86;103447;1252;107129;-75
2023/04/03 01:19:08;;;;;;;4.60;1.80;;;;;;;0.37;64.68;100677.95;103842;1252;137576;-76
2023/04/03 01:22:05;;;;;;;5.80;2.30;;;;;;;0.33;64.45;100683.17;103727;1252;108944;-76
2023/04/03 01:24:34;;;;;;;3.40;1.70;;;;;;;0.30;64.60;100686.02;103887;1252;137888;-76
2023/04/03 01:27:01;;;;;;;7.10;2.20;;;;;;;0.26;64.81;100687.36;104127;1251;108180;-77
2023/04/03 01:29:25;;;;;;;4.30;1.80;;;;;;;0.24;64.72;100691.59;103640;1254;106894;-76
2023/04/03 01:31:54;;;;;;;6.70;2.10;;;;;;;0.21;64.53;100689.49;104183;1252;137286;-75
2023/04/03 01:34:19;;;;;;;5.30;2.60;;;;;;;0.18;64.50;100693.55;104333;1253;108126;-75
2023/04/03 01:36:43;;;;;;;3.30;1.70;;;;;;;0.15;64.70;100694.33;103678;1254;137420;-76
2023/04/03 01:39:07;;;;;;;4.10;1.90;;;;;;;0.13;64.73;100696.02;103811;1251;108496;-76
2023/04/03 01:41:32;;;;;;;5.70;2.00;;;;;;;0.12;64.73;100700.10;104231;1256;107245;-76
2023/04/03 01:44:13;;;;;;;5.00;2.40;;;;;;;0.09;64.71;100705.36;103793;1251;95075;-74
2023/04/03 01:46:42;;;;;;;3.30;2.00;;;;;;;0.06;64.73;100701.55;104085;1251;107687;-76
2023/04/03 01:49:26;;;;;;;5.90;1.90;;;;;;;0.03;64.55;100704.91;103326;1252;137473;-75
2023/04/03 01:51:59;;;;;;;6.30;1.90;;;;;;;-0.02;64.60;100700.01;103476;1252;108824;-74
2023/04/03 01:54:34;;;;;;;3.30;1.90;;;;;;;-0.05;64.64;100702.54;103398;1256;137709;-75
2023/04/03 01:57:18;;;;;;;6.70;2.10;;;;;;;-0.08;64.63;100705.05;103894;1251;95005;-75
2023/04/03 02:00:03;;;;;;;5.90;2.20;;;;;;;-0.10;64.85;100704.66;103426;1256;137634;-74
2023/04/03 02:02:36;;;;;;;7.40;2.10;;;;;;;-0.13;64.63;100707.70;103487;1252;95073;-74
2023/04/03 02:05:20;;;;;;;4.90;2.00;;;;;;;-0.15;64.92;100712.61;104384;1252;108435;-75
2023/04/03 02:07:49;;;;;;;4.50;1.90;;;;;;;-0.18;64.81;100711.34;103393;1252;137628;-74
2023/04/03 02:10:14;;;;;;;6.20;2.00;;;;;;;-0.21;64.80;100716.08;103591;1252;95601;-74
2023/04/03 02:12:52;;;;;;;5.50;1.80;;;;;;;-0.26;64.84;100718.73;103425;1256;138366;-76
2023/04/03 02:15:25;;;;;;;4.00;2.10;;;;;;;-0.27;64.93;100723.32;103529;1252;95384;-75
2023/04/03 02:17:52;;;;;;;6.30;2.00;;;;;;;-0.29;64.82;100721.23;103498;1254;137948;-75
2023/04/03 02:20:17;;;;;;;5.50;2.40;;;;;;;-0.31;65.10;100723.59;103664;1252;107934;-75
2023/04/03 02:23:02;;;;;;;3.40;1.80;;;;;;;-0.33;65.00;100731.24;104154;1252;94248;-76
2023/04/03 02:25:25;;;;;;;4.30;1.70;;;;;;;-0.35;65.06;100728.98;103513;1256;139117;-75
2023/04/03 02:27:49;;;;;;;5.00;1.80;;;;;;;-0.36;65.08;100730.66;103643;1252;95117;-75
2023/04/03 02:30:14;;;;;;;2.90;1.60;;;;;;;-0.39;64.98;100727.86;103277;1251;137644;-75
2023/04/03 02:32:38;;;;;;;7.70;1.80;;;;;;;-0.40;65.11;100730.73;103885;1252;107113;-76
2023/04/03 02:35:02;;;;;;;4.80;2.20;;;;;;;-0.43;65.07;100731.88;103878;1256;94403;-76
2023/04/03 02:37:26;;;;;;;6.30;1.80;;;;;;;-0.46;64.87;100732.85;103541;1254;137636;-77
2023/04/03 02:40:11;;;;;;;5.70;2.00;;;;;;;-0.50;65.20;100736.88;103849;1252;94425;-76
2023/04/03 02:42:55;;;;;;;4.70;1.60;;;;;;;-0.53;65.23;100738.36;103525;1252;137608;-78
2023/04/03 02:45:40;;;;;;;5.20;1.80;;;;;;;-0.56;65.32;100736.55;103569;1252;110139;-77
2023/04/03 02:48:09;;;;;;;6.10;2.20;;;;;;;-0.59;65.30;100740.09;103466;1252;138149;-77
2023/04/03 02:50:33;;;;;;;6.10;2.00;;;;;;;-0.63;65.33;100740.87;103436;1257;108562;-76
2023/04/03 02:53:08;;;;;;;4.50;2.00;;;;;;;-0.66;65.37;100744.58;103424;1252;95162;-76
2023/04/03 02:55:52;;;;;;;6.50;1.80;;;;;;;-0.71;65.42;100741.57;103739;1254;109730;-77
2023/04/03 02:58:28;;;;;;;5.50;1.80;;;;;;;-0.70;65.36;100749.10;102751;1258;1003117;-78
2023/04/03 03:00:53;;;;;;;6.40;2.30;;;;;;;-0.73;65.43;100744.92;103604;1255;138367;-77
2023/04/03 03:03:17;;;;;;;5.40;2.00;;;;;;;-0.75;65.61;100750.17;103855;1254;108904;-77
2023/04/03 03:05:44;;;;;;;4.00;2.00;;;;;;;-0.77;65.67;100749.63;103261;1255;138176;-76
2023/04/03 03:08:21;;;;;;;4.80;2.10;;;;;;;-0.79;65.77;100749.76;103764;1253;107786;-76
2023/04/03 03:11:06;;;;;;;4.20;2.10;;;;;;;-0.81;65.62;100742.70;103566;1253;110731;-76
2023/04/03 03:13:33;;;;;;;5.20;2.20;;;;;;;-0.85;65.49;100746.55;103632;1253;137954;-77
2023/04/03 03:16:01;;;;;;;4.20;1.90;;;;;;;-0.88;65.64;100752.12;103809;1253;107290;-77
2023/04/03 03:18:30;;;;;;;9.10;2.70;;;;;;;-0.90;65.74;100751.04;103467;1253;137896;-76
2023/04/03 03:21:04;;;;;;;6.90;2.40;;;;;;;-0.93;65.67;100750.45;103356;1253;108952;-76
2023/04/03 03:23:36;;;;;;;6.30;2.70;;;;;;;-0.96;66.06;100751.08;103383;1256;138147;-74
2023/04/03 03:26:12;;;;;;;8.10;2.70;;;;;;;-1.00;66.12;100754.76;103606;1254;95087;-75
2023/04/03 03:28:46;;;;;;;9.50;2.90;;;;;;;-1.03;66.19;100755.20;103479;1252;107530;-75
2023/04/03 03:31:30;;;;;;;6.70;2.80;;;;;;;-1.06;66.30;100757.85;104728;1251;138910;-76
2023/04/03 03:33:56;;;;;;;6.50;2.60;;;;;;;-1.09;66.16;100756.91;104801;1251;108466;-76
2023/04/03 03:36:20;;;;;;;5.70;2.00;;;;;;;-1.11;66.27;100758.05;104687;1251;138383;-75
2023/04/03 03:38:46;;;;;;;;;;;;;;;-1.12;66.29;100758.20;104812;1251;94469;-76
2023/04/03 03:41:22;;;;;;;7.60;2.70;;;;;;;-1.14;66.45;100759.88;104788;1253;107996;-76
2023/04/03 03:43:57;;;;;;;6.30;2.60;;;;;;;-1.14;66.73;100756.46;104675;1252;94897;-76
2023/04/03 03:46:41;;;;;;;6.50;2.00;;;;;;;-1.14;66.57;100760.55;103500;1251;111773;-76
2023/04/03 03:49:09;;;;;;;4.40;1.80;;;;;;;-1.14;66.69;100753.56;103416;1256;138157;-76
2023/04/03 03:51:53;;;;;;;5.90;2.30;;;;;;;-1.16;66.38;100754.20;103519;1253;96984;-75
2023/04/03 03:54:38;;;;;;;5.40;2.00;;;;;;;-1.19;66.54;100756.35;103353;1253;138393;-76
2023/04/03 03:57:04;;;;;;;5.30;2.20;;;;;;;-1.22;66.48;100758.17;103476;1256;96419;-76
2023/04/03 03:59:32;;;;;;;5.90;2.20;;;;;;;-1.25;66.67;100755.02;103556;1252;110532;-76
2023/04/03 04:02:02;;;;;;;6.70;2.00;;;;;;;-1.27;67.02;100759.56;103460;1252;108367;-76
2023/04/03 04:04:36;;;;;;;4.20;2.10;;;;;;;-1.33;67.04;100758.08;103894;1253;97350;-76
2023/04/03 04:07:21;;;;;;;7.30;2.20;;;;;;;-1.35;67.07;100760.58;103361;1258;137970;-76
2023/04/03 04:09:45;;;;;;;4.30;1.90;;;;;;;-1.37;67.23;100761.04;103614;1251;96338;-76
2023/04/03 04:12:10;;;;;;;;;;;;;;;-1.39;67.24;100768.85;103339;1253;138229;-76
2023/04/03 04:14:46;;;;;;;2.90;1.80;;;;;;;-1.41;67.48;100767.95;103518;1257;107502;-76
2023/04/03 04:17:10;;;;;;;4.10;2.00;;;;;;;-1.42;67.59;100767.41;103591;1253;96632;-75
2023/04/03 04:19:34;;;;;;;2.50;1.80;;;;;;;-1.42;67.54;100776.12;103749;1252;138678;-75
2023/04/03 04:21:58;;;;;;;6.60;1.90;;;;;;;-1.40;67.70;100777.18;103517;1253;96473;-75
2023/04/03 04:24:24;;;;;;;5.50;2.00;;;;;;;-1.37;67.64;100778.80;103629;1253;138074;-74
2023/04/03 04:26:49;;;;;;;4.80;2.40;;;;;;;-1.33;67.55;100776.98;103954;1253;106838;-76
2023/04/03 04:29:14;;;;;;;4.10;1.80;;;;;;;-1.31;67.49;100782.34;103472;1252;96437;-76
2023/04/03 04:31:39;;;;;;;4.40;2.00;;;;;;;-1.28;67.57;100784.61;103396;1255;138015;-75
2023/04/03 04:34:03;;;;;;;7.60;3.10;;;;;;;-1.25;67.85;100788.30;103402;1253;96460;-76
2023/04/03 04:36:31;;;;;;;6.80;2.60;;;;;;;-1.19;67.97;100789.27;103478;1253;138262;-77
2023/04/03 04:38:58;;;;;;;5.00;2.20;;;;;;;-1.12;67.61;100789.44;103483;1253;108616;-76
2023/04/03 04:41:35;;;;;;;5.00;2.10;;;;;;;-0.94;67.67;100791.92;104043;1257;95518;-69
2023/04/03 04:44:02;;;;;;;4.10;2.00;;;;;;;-0.50;67.67;100796.98;103461;1253;108418;-69
2023/04/03 04:46:32;;;;;;;4.30;2.50;;;;;;;0.13;66.86;100800.83;103556;1251;96546;-69
2023/04/03 04:48:59;;;;;;;4.80;2.00;;;;;;;1.10;66.30;100798.87;103774;1252;137565;-69
2023/04/03 04:51:25;;;;;;;6.80;2.70;;;;;;;2.44;65.18;100797.09;103430;1253;108256;-70
2023/04/03 04:53:49;;;;;;;8.90;3.30;;;;;;;3.83;63.41;100794.96;104651;1253;137508;-72
2023/04/03 04:56:14;;;;;;;9.30;4.00;;;;;;;5.11;62.04;100796.16;103514;1251;108096;-72
2023/04/03 04:58:40;;;;;;;;;;;;;;;6.76;60.28;100791.83;103579;1252;96422;-68
2023/04/03 05:01:06;;;;;;;7.10;2.90;;;;;;;8.28;58.43;100789.50;103236;1258;123520;-68
2023/04/03 05:03:32;;;;;;;4.20;2.10;;;;;;;9.74;56.41;100782.84;103525;1254;107000;-70
2023/04/03 05:05:56;;;;;;;5.30;1.80;;;;;;;11.08;54.48;100779.46;103654;1253;138380;-72
2023/04/03 05:08:21;;;;;;;5.50;2.00;;;;;;;12.35;52.42;100775.36;103454;1256;108043;-69
2023/04/03 05:10:45;;;;;;;5.20;2.20;;;;;;;13.51;49.80;100775.70;103554;1256;96451;-70
2023/04/03 05:13:10;;;;;;;4.70;1.80;;;;;;;14.32;46.10;100774.59;103381;1253;137350;-70
2023/04/03 05:15:34;;;;;;;3.90;2.10;;;;;;;15.16;45.80;100771.66;104385;1252;107599;-70
2023/04/03 05:17:59;;;;;;;3.90;1.70;;;;;;;15.86;43.16;100772.67;103234;1252;137703;-70
2023/04/03 05:20:23;;;;;;;3.90;1.40;;;;;;;16.44;42.78;100771.86;103231;1252;108931;-71
2023/04/03 05:22:47;;;;;;;3.20;1.50;;;;;;;17.27;42.84;100772.66;103686;1252;96468;-71
2023/04/03 05:25:11;;;;;;;4.40;1.50;;;;;;;18.15;41.47;100769.38;103605;1252;137317;-71
2023/04/03 05:27:36;;;;;;;2.80;1.50;;;;;;;18.93;38.88;100770.80;103453;1252;108808;-73
2023/04/03 05:30:00;;;;;;;5.80;1.80;;;;;;;19.57;38.46;100775.08;103284;1252;137828;-71
2023/04/03 05:32:26;;;;;;;3.10;1.70;;;;;;;20.11;38.28;100777.54;103837;1256;106444;-72
2023/04/03 05:34:57;;;;;;;6.20;1.80;;;;;;;20.38;37.03;100776.52;103354;1252;96444;-71
2023/04/03 05:37:24;;;;;;;3.20;1.60;;;;;;;19.96;36.16;100773.85;103885;1253;137489;-72
2023/04/03 05:39:49;;;;;;;2.10;1.50;;;;;;;19.32;34.66;100782.23;103405;1253;107579;-71
2023/04/03 05:42:14;;;;;;;3.20;1.90;;;;;;;17.58;33.87;100791.56;103671;1253;138175;-70
2023/04/03 05:44:38;;;;;;;6.10;2.00;;;;;;;16.05;35.29;100796.48;103423;1258;107353;-70
2023/04/03 05:47:02;;;;;;;3.10;1.90;;;;;;;15.40;35.54;100799.23;103424;1253;96493;-70
2023/04/03 05:49:26;;;;;;;4.60;1.50;;;;;;;14.96;35.54;100803.00;104231;1253;137265;-70
2023/04/03 05:51:51;;;;;;;6.60;1.70;;;;;;;14.43;35.61;100806.89;103402;1256;108365;-69
2023/04/03 05:54:24;;;;;;;4.30;1.60;;;;;;;13.66;35.70;100809.60;103281;1256;137654;-68
2023/04/03 05:56:50;;;;;;;3.00;1.30;;;;;;;13.08;35.70;100818.92;103908;1256;108201;-68
2023/04/03 05:59:15;;;;;;;4.10;1.40;;;;;;;12.26;35.80;100819.41;103350;1257;97260;-68
2023/04/03 06:01:38;;;;;;;4.20;1.40;;;;;;;11.88;36.87;100821.20;103137;1255;138053;-69
2023/04/03 06:04:03;;;;;;;3.80;1.60;;;;;;;12.92;37.30;100821.84;103149;1258;107562;-69
2023/04/03 06:06:42;;;;;;;4.40;1.40;;;;;;;14.54;37.07;100814.11;104116;1253;137477;-69
2023/04/03 06:09:06;;;;;;;4.50;1.90;;;;;;;16.13;34.69;100807.49;104014;1258;108202;-69
2023/04/03 06:11:31;;;;;;;3.40;1.80;;;;;;;17.41;34.95;100811.29;103330;1253;96513;-69
2023/04/03 06:13:55;;;;;;;3.50;1.60;;;;;;;17.50;33.93;100814.91;103761;1252;137763;-69
2023/04/03 06:16:20;;;;;;;5.00;1.70;;;;;;;16.89;32.80;100817.83;104325;1253;108120;-69
2023/04/03 06:18:43;;;;;;;4.00;2.10;;;;;;;16.72;32.64;100820.55;104296;1253;137531;-69
2023/04/03 06:21:08;;;;;;;5.60;1.50;;;;;;;15.97;32.43;100820.05;104253;1253;107718;-69
2023/04/03 06:23:32;;;;;;;9.70;2.10;;;;;;;15.35;32.56;100823.09;103496;1254;96341;-70
2023/04/03 06:25:56;;;;;;;3.50;1.50;;;;;;;14.64;32.94;100830.04;104165;1251;138526;-70
2023/04/03 06:28:20;;;;;;;6.30;1.80;;;;;;;14.91;33.83;100835.08;103805;1252;108321;-71
2023/04/03 06:30:44;;;;;;;4.40;1.70;;;;;;;16.08;33.79;100832.14;103947;1253;137477;-71
2023/04/03 06:33:07;;;;;;;4.80;1.60;;;;;;;17.55;32.67;100832.73;103716;1253;108014;-71
2023/04/03 06:35:31;;;;;;;5.20;1.80;;;;;;;19.14;32.76;100830.50;104433;1251;94584;-71
2023/04/03 06:37:56;;;;;;;3.50;1.80;;;;;;;20.55;32.10;100830.90;104004;1251;137130;-70
2023/04/03 06:40:23;;;;;;;2.30;1.30;;;;;;;21.45;30.55;100830.23;103828;1253;106875;-71
2023/04/03 06:42:47;;;;;;;3.60;1.80;;;;;;;21.85;29.01;100824.45;103533;1251;137485;-71
2023/04/03 06:45:12;;;;;;;;;;;;;;;22.48;29.60;100826.75;103733;1253;108635;-71
2023/04/03 06:47:36;;;;;;;3.90;1.30;;;;;;;23.19;29.13;100823.91;103760;1253;96439;-71
2023/04/03 06:50:00;;;;;;;2.50;1.30;;;;;;;24.15;29.03;100820.38;103526;1253;137101;-72
2023/04/03 06:52:24;;;;;;;3.00;1.60;;;;;;;24.94;28.27;100822.83;104220;1253;109507;-72
2023/04/03 06:54:48;;;;;;;4.10;2.00;;;;;;;25.84;26.30;100818.37;103497;1250;137603;-72
2023/04/03 06:57:12;;;;;;;3.70;1.80;;;;;;;26.08;25.71;100818.29;103844;1253;108068;-72
2023/04/03 06:59:36;;;;;;;5.00;2.00;;;;;;;26.47;25.74;100820.88;103780;1256;96313;-71
2023/04/03 07:02:00;;;;;;;3.80;1.80;;;;;;;26.47;24.36;100819.05;103831;1256;137337;-71
2023/04/03 07:04:24;;;;;;;2.20;1.60;;;;;;;26.62;24.89;100829.80;103470;1255;107607;-71
2023/04/03 07:06:49;;;;;;;2.80;1.70;;;;;;;27.06;24.54;100829.77;103375;1252;137593;-72
2023/04/03 07:09:12;;;;;;;4.60;1.50;;;;;;;27.25;23.68;100828.92;103439;1256;108275;-71
2023/04/03 07:11:36;;;;;;;3.60;1.90;;;;;;;27.56;24.17;100831.31;103459;1253;96438;-71
2023/04/03 07:14:00;;;;;;;3.30;1.60;;;;;;;27.80;23.20;100825.92;103341;1253;137342;-72
2023/04/03 07:16:24;;;;;;;3.80;1.70;;;;;;;27.70;22.51;100834.98;103398;1255;108593;-78
2023/04/03 07:18:48;;;;;;;2.80;1.40;;;;;;;27.74;22.74;100830.74;103495;1253;137525;-78
2023/04/03 07:21:12;;;;;;;3.40;1.60;;;;;;;27.53;20.19;100838.39;103433;1256;107804;-79
2023/04/03 07:23:36;;;;;;;4.50;1.80;;;;;;;27.02;20.69;100840.98;104587;1254;94389;-80
2023/04/03 07:26:00;;;;;;;2.90;1.80;;;;;;;26.87;21.98;100836.84;103922;1252;137095;-81
2023/04/03 07:28:24;;;;;;;3.20;1.90;;;;;;;26.70;21.14;100841.59;104349;1252;108023;-79
2023/04/03 07:30:50;;;;;;;5.50;1.50;;;;;;;26.64;21.60;100841.48;103341;1254;137585;-78
2023/04/03 07:33:13;;;;;;;;;;;;;;;26.64;21.98;100844.88;103503;1253;110830;-78
2023/04/03 07:35:37;;;;;;;4.30;1.60;;;;;;;26.65;22.20;100848.09;104631;1253;96216;-78
2023/04/03 07:38:02;;;;;;;5.00;1.70;;;;;;;26.89;21.62;100850.54;104034;1254;111540;-77
2023/04/03 07:40:26;;;;;;;2.30;1.50;;;;;;;26.87;21.58;100854.54;103411;1253;108174;-77
2023/04/03 07:42:50;;;;;;;3.20;1.80;;;;;;;27.03;22.08;100855.38;103404;1253;137442;-78
2023/04/03 07:45:14;;;;;;;6.20;1.80;;;;;;;26.94;21.71;100857.81;103956;1250;107612;-79
2023/04/03 07:47:38;;;;;;;5.60;1.90;;;;;;;26.89;22.17;100859.90;103482;1250;96661;-80
2023/04/03 07:50:02;;;;;;;3.20;1.60;;;;;;;27.20;22.27;100859.00;103360;1256;112987;-80
2023/04/03 07:52:26;;;;;;;4.70;1.90;;;;;;;27.56;22.08;100860.67;103238;1256;107915;-77
2023/04/03 07:54:49;;;;;;;4.40;2.40;;;;;;;27.96;21.57;100861.28;103337;1253;137527;-69
2023/04/03 07:57:13;;;;;;;5.10;1.70;;;;;;;28.02;21.06;100864.82;103638;1251;107957;-70
2023/04/03 07:59:37;;;;;;;4.30;1.70;;;;;;;27.81;20.63;100859.95;104773;1253;94588;-71
2023/04/03 08:02:01;;;;;;;3.40;1.40;;;;;;;27.88;20.74;100852.29;103409;1256;137132;-70
2023/04/03 08:04:25;;;;;;;2.40;1.50;;;;;;;27.83;19.39;100853.30;103351;1256;107279;-70
2023/04/03 08:06:49;;;;;;;4.60;1.60;;;;;;;27.45;19.24;100850.45;103303;1254;137259;-72
2023/04/03 08:09:14;;;;;;;3.90;1.70;;;;;;;26.37;19.37;100859.20;103408;1254;108774;-73
2023/04/03 08:11:40;;;;;;;2.00;1.40;;;;;;;25.33;18.13;100867.45;103414;1256;97046;-71
2023/04/03 08:14:04;;;;;;;3.00;1.40;;;;;;;24.41;19.57;100860.92;103799;1254;109138;-71
2023/04/03 08:16:27;;;;;;;3.00;1.40;;;;;;;24.33;20.10;100866.60;103433;1255;107984;-71
2023/04/03 08:18:52;;;;;;;4.00;1.40;;;;;;;24.06;19.58;100859.13;103880;1251;137649;-70
2023/04/03 08:21:15;;;;;;;4.10;1.40;;;;;;;23.79;20.52;100863.87;103931;1255;108215;-71
2023/04/03 08:23:40;;;;;;;7.30;1.90;;;;;;;23.86;19.80;100859.09;103662;1256;96535;-71
2023/04/03 08:26:11;;;;;;;2.50;1.20;;;;;;;23.67;20.21;100864.45;103548;1256;110099;-74
2023/04/03 08:28:35;;;;;;;2.60;1.40;;;;;;;23.60;19.97;100868.15;103901;1256;107691;-71
2023/04/03 08:31:06;;;;;;;3.30;1.50;;;;;;;23.33;20.04;100872.92;103340;1252;137551;-70
2023/04/03 08:33:30;;;;;;;2.70;1.30;;;;;;;23.22;20.28;100873.05;103454;1256;108028;-70
2023/04/03 08:35:53;;;;;;;4.40;1.50;;;;;;;23.42;20.90;100871.89;103410;1252;137643;-70
2023/04/03 08:38:17;;;;;;;2.60;1.60;;;;;;;23.65;20.65;100878.34;104277;1251;109411;-69
2023/04/03 08:40:42;;;;;;;1.90;1.00;;;;;;;22.94;20.18;100865.73;103690;1256;109206;-69
2023/04/03 08:43:22;;;;;;;2.70;1.20;;;;;;;22.38;20.25;100865.20;104459;1251;137532;-70
2023/04/03 08:45:50;;;;;;;2.70;1.40;;;;;;;22.24;19.40;100870.42;103677;1252;106748;-70
2023/04/03 08:48:20;;;;;;;1.70;1.00;;;;;;;21.74;20.29;100881.91;103556;1256;138741;-72
2023/04/03 08:50:47;;;;;;;2.20;1.30;;;;;;;21.72;20.81;100886.13;104121;1251;109472;-70
2023/04/03 08:53:16;;;;;;;3.50;1.50;;;;;;;21.76;21.29;100880.88;103930;1256;109883;-71
2023/04/03 08:55:45;;;;;;;2.20;1.30;;;;;;;22.22;21.07;100866.14;103546;1251;137521;-72
2023/04/03 08:58:15;;;;;;;3.80;1.20;;;;;;;21.96;19.79;100873.45;104011;1251;108212;-72
2023/04/03 09:00:48;;;;;;;6.70;1.50;;;;;;;21.44;20.10;100881.09;104579;1253;137486;-72
2023/04/03 09:03:24;;;;;;;4.00;1.50;;;;;;;21.36;20.59;100882.90;104805;1251;109587;-72
2023/04/03 09:06:23;;;;;;;5.60;1.50;;;;;;;21.37;20.64;100887.21;104095;1264;137736;-73
2023/04/03 09:08:53;;;;;;;2.20;1.10;;;;;;;21.08;21.60;100886.83;103421;1263;96617;-72
2023/04/03 09:11:24;;;;;;;2.50;1.10;;;;;;;21.45;21.69;100883.54;103021;1259;108807;-70
2023/04/03 09:13:54;;;;;;;2.70;1.40;;;;;;;21.62;21.00;100880.35;102838;1261;137808;-75
2023/04/03 09:16:27;;;;;;;2.60;1.00;;;;;;;20.48;19.53;100878.80;102904;1261;110042;-77
2023/04/03 09:18:58;;;;;;;1.60;1.10;;;;;;;19.62;20.64;100888.02;102692;1262;137519;-76
2023/04/03 09:21:27;;;;;;;4.30;1.20;;;;;;;18.85;20.70;100891.07;102880;1261;96568;-74
2023/04/03 09:23:53;;;;;;;2.10;1.40;;;;;;;18.61;21.75;100894.50;102898;1257;137469;-74
2023/04/03 09:26:20;;;;;;;2.10;1.20;;;;;;;18.86;21.69;100890.45;104046;1257;96485;-74
2023/04/03 09:28:45;;;;;;;1.60;1.10;;;;;;;19.29;22.22;100893.29;103448;1254;111011;-73
2023/04/03 09:31:21;;;;;;;3.00;1.40;;;;;;;19.66;21.69;100889.20;103402;1257;137616;-70
2023/04/03 09:33:46;;;;;;;2.00;1.20;;;;;;;19.67;21.49;100898.14;103479;1257;96356;-71
2023/04/03 09:36:10;;;;;;;2.50;1.40;;;;;;;19.79;21.07;100893.20;103696;1256;137626;-72
2023/04/03 09:38:34;;;;;;;2.50;1.30;;;;;;;19.77;21.29;100889.91;103690;1254;96422;-71
2023/04/03 09:41:07;;;;;;;1.40;1.10;;;;;;;20.06;21.73;100879.55;104290;1256;109978;-72
2023/04/03 09:43:32;;;;;;;3.00;1.00;;;;;;;20.31;21.75;100886.78;103649;1251;138091;-70
2023/04/03 09:46:17;;;;;;;1.70;1.20;;;;;;;20.60;21.57;100887.66;103726;1251;96479;-69
2023/04/03 09:48:49;;;;;;;;;;;;;;;20.65;20.54;100882.05;103471;1255;137297;-72
2023/04/03 09:51:27;;;;;;;1.90;1.00;;;;;;;20.15;20.14;100871.04;103804;1251;95764;-73
2023/04/03 09:53:51;;;;;;;3.20;0.90;;;;;;;19.67;20.34;100886.33;104401;1251;137514;-77
2023/04/03 09:56:25;;;;;;;1.30;0.90;;;;;;;19.25;20.97;100897.74;103706;1251;108037;-74
2023/04/03 09:58:51;;;;;;;2.50;1.00;;;;;;;18.51;21.00;100897.66;104210;1256;95484;-71
2023/04/03 10:01:26;;;;;;;1.70;1.20;;;;;;;18.24;21.17;100898.11;103498;1256;137457;-73
2023/04/03 10:04:05;;;;;;;3.20;1.40;;;;;;;17.74;21.29;100891.71;104130;1255;96440;-72
2023/04/03 10:06:32;;;;;;;2.00;1.10;;;;;;;16.79;21.73;100908.02;103410;1251;137912;-72
2023/04/03 10:09:04;;;;;;;2.40;1.00;;;;;;;15.91;22.32;100909.17;103446;1257;106279;-71
2023/04/03 10:11:28;;;;;;;1.90;1.10;;;;;;;15.12;23.03;100913.39;103476;1257;96427;-67
2023/04/03 10:13:55;;;;;;;2.40;1.30;;;;;;;14.54;23.72;100922.66;103371;1251;137265;-68
2023/04/03 10:16:24;;;;;;;3.10;0.90;;;;;;;13.99;23.78;100932.16;103781;1256;96440;-70
2023/04/03 10:18:55;;;;;;;2.80;1.20;;;;;;;13.46;25.09;100934.70;104287;1254;137356;-71
2023/04/03 10:21:30;;;;;;;2.60;1.40;;;;;;;13.09;24.32;100934.10;103456;1253;108369;-70
2023/04/03 10:24:03;;;;;;;2.20;1.40;;;;;;;12.75;24.77;100936.04;104497;1254;137703;-69
2023/04/03 10:26:37;;;;;;;2.60;1.30;;;;;;;12.82;25.37;100932.48;103489;1257;107964;-69
2023/04/03 10:29:09;;;;;;;2.00;1.00;;;;;;;13.08;25.20;100933.80;103880;1256;96543;-69
2023/04/03 10:31:41;;;;;;;2.20;1.20;;;;;;;13.27;25.74;100926.91;103331;1257;208662;-71
2023/04/03 10:34:14;;;;;;;2.50;1.10;;;;;;;13.54;25.95;100923.05;103397;1254;109007;-69
2023/04/03 10:36:46;;;;;;;2.60;1.00;;;;;;;13.92;25.62;100921.23;103353;1251;137559;-69
2023/04/03 10:39:21;;;;;;;3.60;1.30;;;;;;;13.58;25.15;100922.05;103410;1255;107284;-70
2023/04/03 10:41:56;;;;;;;1.50;1.00;;;;;;;13.43;25.14;100927.45;103358;1254;137610;-69
2023/04/03 10:44:48;;;;;;;2.10;1.00;;;;;;;13.45;25.46;100920.91;103480;1256;109491;-69
2023/04/03 10:47:21;;;;;;;3.70;1.50;;;;;;;13.05;24.90;100913.80;103471;1254;107985;-69
2023/04/03 10:49:52;;;;;;;2.30;1.30;;;;;;;12.47;25.47;100916.61;103359;1257;137752;-68
2023/04/03 10:52:30;;;;;;;2.10;1.20;;;;;;;12.01;25.92;100919.84;103543;1256;107030;-68
2023/04/03 10:55:03;;;;;;;4.10;1.30;;;;;;;11.48;25.92;100918.76;103400;1256;139289;-68
2023/04/03 10:57:30;;;;;;;3.30;1.10;;;;;;;11.05;26.31;100922.61;103614;1251;109839;-67
2023/04/03 11:00:01;;;;;;;3.50;1.20;;;;;;;10.65;26.97;100927.33;103916;1254;137680;-70
2023/04/03 11:02:31;;;;;;;1.50;0.90;;;;;;;10.38;27.63;100925.63;103778;1251;96434;-71
2023/04/03 11:05:16;;;;;;;3.30;1.60;;;;;;;10.28;27.21;100914.86;103394;1254;107912;-69
2023/04/03 11:07:43;;;;;;;2.90;1.40;;;;;;;10.12;27.76;100930.11;103308;1257;137488;-70
2023/04/03 11:10:16;;;;;;;3.90;1.10;;;;;;;10.45;28.31;100928.79;103523;1254;108304;-70
2023/04/03 11:12:45;;;;;;;1.50;1.10;;;;;;;10.56;28.34;100921.27;103402;1255;137684;-70
2023/04/03 11:15:16;;;;;;;1.80;1.00;;;;;;;11.05;29.11;100917.90;103488;1254;96328;-68
2023/04/03 11:17:46;;;;;;;3.20;0.90;;;;;;;11.76;28.65;100916.31;103408;1256;107693;-69
2023/04/03 11:20:20;;;;;;;3.40;1.00;;;;;;;12.24;27.63;100910.49;103530;1256;96514;-71
2023/04/03 11:22:49;;;;;;;2.40;1.20;;;;;;;12.47;27.19;100909.84;103443;1251;108455;-70